Time;durP1;ratioP1;P1;durP2;ratioP2;P2;SDS_P1;SDS_P2;PMS_P1;PMS_P2;Temp;Humidity;BMP_temperature;BMP_pressure;BME280_temperature;BME280_humidity;BME280_pressure;Samples;Min_cycle;Max_cycle;Signal;HPM_P1;HPM_P2
2021/11/09 00:00:26;;;;;;;4.25;1.52;;;21.70;40.50;;;;;;5016550;28;20096;-48
2021/11/09 00:02:52;;;;;;;3.72;1.55;;;21.70;40.40;;;;;;5020696;28;20046;-53
2021/11/09 00:05:20;;;;;;;3.45;1.60;;;21.70;40.40;;;;;;5020686;28;20045;-49
2021/11/09 00:07:56;;;;;;;3.85;1.73;;;21.70;40.40;;;;;;5035773;28;20040;-49
2021/11/09 00:10:23;;;;;;;3.78;1.80;;;21.70;40.30;;;;;;5035268;28;20037;-50
2021/11/09 00:13:01;;;;;;;4.05;1.80;;;21.70;40.30;;;;;;5030257;28;20082;-48
2021/11/09 00:15:30;;;;;;;3.08;1.38;;;21.70;40.20;;;;;;5016462;28;20042;-51
2021/11/09 00:17:58;;;;;;;2.88;1.60;;;21.70;40.30;;;;;;5015706;28;20030;-47
2021/11/09 00:20:36;;;;;;;5.38;1.65;;;21.70;40.20;;;;;;5023223;28;20048;-48
2021/11/09 00:23:03;;;;;;;3.13;1.60;;;21.70;40.20;;;;;;5034242;28;20044;-49
2021/11/09 00:25:29;;;;;;;4.30;1.85;;;21.70;40.20;;;;;;5030003;28;20042;-49
2021/11/09 00:27:55;;;;;;;3.20;1.60;;;21.70;40.20;;;;;;5016127;28;20033;-50
2021/11/09 00:30:23;;;;;;;3.83;1.88;;;21.70;40.10;;;;;;5027985;28;20473;-49
2021/11/09 00:32:49;;;;;;;4.13;1.67;;;21.70;40.10;;;;;;5034820;28;20087;-48
2021/11/09 00:35:19;;;;;;;3.58;1.50;;;21.70;40.10;;;;;;5030252;28;20037;-51
2021/11/09 00:37:46;;;;;;;3.67;1.70;;;21.70;40.10;;;;;;5018193;28;20527;-51
2021/11/09 00:40:15;;;;;;;6.47;1.63;;;21.60;40.00;;;;;;5015853;28;20034;-47
2021/11/09 00:42:41;;;;;;;3.45;1.70;;;21.70;40.00;;;;;;5019098;28;20104;-47
2021/11/09 00:45:09;;;;;;;3.55;1.70;;;21.70;40.00;;;;;;5033223;28;20048;-48
2021/11/09 00:47:36;;;;;;;3.22;1.58;;;21.70;39.90;;;;;;5032925;28;20152;-52
2021/11/09 00:50:05;;;;;;;3.53;1.67;;;21.70;39.90;;;;;;5033565;28;20419;-50
2021/11/09 00:52:30;;;;;;;4.00;1.52;;;21.70;39.90;;;;;;5029069;28;20026;-48
2021/11/09 00:54:56;;;;;;;4.47;1.85;;;21.70;39.90;;;;;;5031856;28;20049;-52
2021/11/09 00:57:22;;;;;;;3.88;1.50;;;21.70;39.90;;;;;;5015528;28;20121;-45
2021/11/09 00:59:48;;;;;;;3.45;1.65;;;21.60;39.80;;;;;;5015265;28;20361;-49
2021/11/09 01:02:15;;;;;;;2.88;1.60;;;21.60;39.80;;;;;;5022190;28;20432;-47
2021/11/09 01:04:40;;;;;;;4.45;1.85;;;21.60;39.80;;;;;;5015659;28;20429;-47
2021/11/09 01:07:06;;;;;;;3.85;1.88;;;21.60;39.80;;;;;;5022218;28;20030;-46
2021/11/09 01:09:32;;;;;;;3.65;1.50;;;21.60;39.80;;;;;;5015220;28;20034;-51
2021/11/09 01:11:58;;;;;;;4.93;2.25;;;21.60;39.80;;;;;;5015142;28;20084;-46
2021/11/09 01:14:24;;;;;;;5.13;2.25;;;21.60;39.80;;;;;;5027129;28;20049;-51
2021/11/09 01:16:51;;;;;;;6.15;2.10;;;21.60;39.80;;;;;;5032593;28;20071;-50
2021/11/09 01:19:17;;;;;;;4.47;2.15;;;21.60;39.80;;;;;;5026605;28;20045;-49
2021/11/09 01:21:44;;;;;;;4.28;1.70;;;21.60;39.90;;;;;;5034135;28;20021;-51
2021/11/09 01:24:11;;;;;;;4.35;1.90;;;21.60;39.70;;;;;;5023427;28;20076;-49
2021/11/09 01:26:38;;;;;;;2.67;1.42;;;21.60;39.70;;;;;;5029979;28;20046;-48
2021/11/09 01:29:06;;;;;;;3.63;1.50;;;21.60;39.70;;;;;;5026714;28;20196;-46
2021/11/09 01:31:33;;;;;;;3.28;1.63;;;21.60;39.70;;;;;;5026369;28;20472;-49
2021/11/09 01:33:59;;;;;;;3.53;1.65;;;21.60;39.60;;;;;;5033949;28;20075;-47
2021/11/09 01:36:26;;;;;;;3.47;1.48;;;21.60;39.60;;;;;;5032276;28;20041;-51
2021/11/09 01:38:51;;;;;;;4.97;1.83;;;21.50;39.60;;;;;;5024182;28;20167;-49
2021/11/09 01:41:17;;;;;;;2.75;1.52;;;21.50;39.60;;;;;;5038648;28;20120;-48
2021/11/09 01:43:43;;;;;;;3.17;1.45;;;21.60;39.60;;;;;;5037943;28;20030;-48
2021/11/09 01:46:11;;;;;;;2.45;1.35;;;21.60;39.60;;;;;;5031208;28;20033;-52
2021/11/09 01:48:37;;;;;;;5.18;2.25;;;21.60;39.60;;;;;;5019389;28;20033;-47
2021/11/09 01:51:06;;;;;;;3.85;1.60;;;21.60;39.60;;;;;;5023645;28;20413;-47
2021/11/09 01:53:33;;;;;;;3.75;1.80;;;21.50;39.50;;;;;;5037910;28;20088;-46
2021/11/09 01:56:03;;;;;;;4.43;2.25;;;21.60;39.60;;;;;;5029967;28;20125;-54
2021/11/09 01:58:31;;;;;;;3.83;2.00;;;21.50;39.50;;;;;;5019203;28;20050;-49
2021/11/09 02:01:01;;;;;;;3.30;1.63;;;21.50;39.50;;;;;;5023601;28;20033;-50
2021/11/09 02:03:28;;;;;;;4.22;2.03;;;21.50;39.40;;;;;;5019060;28;20353;-47
2021/11/09 02:05:54;;;;;;;3.88;1.73;;;21.50;39.40;;;;;;5027264;28;20025;-51
2021/11/09 02:08:24;;;;;;;4.65;1.70;;;21.50;39.40;;;;;;5025258;28;20575;-50
2021/11/09 02:10:50;;;;;;;3.25;1.63;;;21.50;39.40;;;;;;5018564;28;20101;-50
2021/11/09 02:13:17;;;;;;;3.45;1.95;;;21.50;39.40;;;;;;5021875;28;20033;-47
2021/11/09 02:15:43;;;;;;;2.75;1.58;;;21.50;39.30;;;;;;5027075;28;20038;-49
2021/11/09 02:18:12;;;;;;;3.30;1.70;;;21.50;39.30;;;;;;5018141;28;20464;-49
2021/11/09 02:20:40;;;;;;;2.85;1.52;;;21.50;39.30;;;;;;5019009;28;20030;-48
2021/11/09 02:23:06;;;;;;;3.25;1.60;;;21.50;39.30;;;;;;5019601;28;20066;-49
2021/11/09 02:25:34;;;;;;;3.17;1.25;;;21.50;39.20;;;;;;5019293;28;20109;-47
2021/11/09 02:28:02;;;;;;;2.80;1.45;;;21.50;39.20;;;;;;5018855;28;20361;-48
2021/11/09 02:33:59;;;;;;;3.83;1.77;;;21.50;39.10;;;;;;5032858;28;20030;-47
2021/11/09 02:36:25;;;;;;;2.67;1.50;;;21.40;39.10;;;;;;5018851;28;20356;-47
2021/11/09 02:38:51;;;;;;;3.33;1.63;;;21.40;39.10;;;;;;5018520;28;20045;-47
2021/11/09 02:41:18;;;;;;;3.80;1.80;;;21.40;39.10;;;;;;5018160;28;20034;-48
2021/11/09 02:43:44;;;;;;;2.63;1.70;;;21.40;39.00;;;;;;5017718;28;20041;-47
2021/11/09 02:49:07;;;;;;;2.22;1.63;;;21.40;39.00;;;;;;5025875;28;20053;-47
2021/11/09 02:51:47;;;;;;;3.08;1.52;;;21.40;38.90;;;;;;5027662;28;20432;-49
2021/11/09 03:02:00;;;;;;;3.88;1.70;;;21.40;38.90;;;;;;5029454;28;20026;-49
2021/11/09 03:07:23;;;;;;;2.90;1.60;;;21.40;38.90;;;;;;5017516;28;20334;-48
2021/11/09 03:10:03;;;;;;;3.92;1.70;;;21.40;38.90;;;;;;5016979;28;20030;-46
2021/11/09 03:12:31;;;;;;;2.80;1.55;;;21.40;38.80;;;;;;5017134;28;20041;-50
2021/11/09 03:14:57;;;;;;;2.28;1.23;;;21.40;38.80;;;;;;5017536;28;20073;-46
2021/11/09 03:17:24;;;;;;;3.28;1.80;;;21.40;38.80;;;;;;5035695;28;20080;-52
2021/11/09 03:47:16;;;;;;;2.75;1.20;;;21.20;38.60;;;;;;5014614;28;20064;-45
2021/11/09 03:49:43;;;;;;;4.10;1.48;;;21.20;38.60;;;;;;5017855;28;20025;-49
2021/11/09 03:52:19;;;;;;;3.03;1.45;;;21.30;38.60;;;;;;5025019;28;20034;-49
2021/11/09 03:54:47;;;;;;;3.60;1.70;;;21.30;38.50;;;;;;5017015;28;20057;-51
2021/11/09 03:57:24;;;;;;;2.80;1.35;;;21.20;38.50;;;;;;5016559;28;20042;-49
2021/11/09 04:02:46;;;;;;;2.35;1.40;;;21.30;38.50;;;;;;5027491;28;20033;-48
2021/11/09 04:05:15;;;;;;;3.05;1.23;;;21.30;38.50;;;;;;5034527;28;20056;-48
2021/11/09 04:13:08;;;;;;;2.55;1.30;;;21.20;38.40;;;;;;5024331;28;20033;-47
2021/11/09 04:18:25;;;;;;;3.53;1.70;;;21.20;38.40;;;;;;5021848;28;20057;-52
2021/11/09 04:23:48;;;;;;;2.58;1.30;;;21.20;38.30;;;;;;5023386;28;20046;-49
2021/11/09 04:40:27;;;;;;;2.75;1.40;;;21.20;38.30;;;;;;5025706;28;20516;-48
2021/11/09 05:09:09;;;;;;;3.00;1.58;;;21.10;38.20;;;;;;4985075;28;20044;-49
2021/11/09 05:11:37;;;;;;;3.20;1.60;;;21.10;38.20;;;;;;5015310;28;20045;-47
2021/11/09 05:14:06;;;;;;;2.97;1.48;;;21.10;38.20;;;;;;5034802;28;20029;-49
2021/11/09 05:16:32;;;;;;;3.28;1.65;;;21.10;38.20;;;;;;5033161;28;20045;-50
2021/11/09 05:18:57;;;;;;;3.47;1.60;;;21.10;38.10;;;;;;5021048;28;20126;-48
2021/11/09 05:21:23;;;;;;;3.15;1.88;;;21.20;38.20;;;;;;5020683;28;20046;-52
2021/11/09 05:23:49;;;;;;;2.67;1.38;;;21.10;38.10;;;;;;5034232;28;20029;-47
2021/11/09 05:26:15;;;;;;;2.83;1.42;;;21.20;38.20;;;;;;5033943;28;20032;-48
2021/11/09 05:28:41;;;;;;;4.13;1.35;;;21.20;38.20;;;;;;5033867;28;20116;-50
2021/11/09 05:31:07;;;;;;;3.25;1.58;;;21.10;38.10;;;;;;5015816;28;20434;-46
2021/11/09 05:33:33;;;;;;;3.25;1.67;;;21.10;38.10;;;;;;5018298;28;20125;-49
2021/11/09 05:36:00;;;;;;;2.72;1.45;;;21.10;38.10;;;;;;5033733;28;20083;-48
2021/11/09 05:38:32;;;;;;;2.35;1.33;;;21.10;38.10;;;;;;5026075;28;20042;-48
2021/11/09 05:41:06;;;;;;;3.72;1.90;;;21.10;38.10;;;;;;5020032;28;20514;-49
2021/11/09 05:43:32;;;;;;;3.72;1.38;;;21.10;38.10;;;;;;5027474;28;20037;-47
2021/11/09 05:45:57;;;;;;;2.60;1.40;;;21.10;38.10;;;;;;5033834;28;20033;-47
2021/11/09 05:48:23;;;;;;;3.33;1.50;;;21.10;38.10;;;;;;5025344;28;20356;-50
2021/11/09 05:50:49;;;;;;;3.25;1.42;;;21.10;38.10;;;;;;5014940;28;20022;-49
2021/11/09 05:53:15;;;;;;;3.63;1.60;;;21.10;38.00;;;;;;5017952;28;20041;-48
2021/11/09 05:55:41;;;;;;;3.90;1.55;;;21.10;38.00;;;;;;5025018;28;20068;-50
2021/11/09 05:58:07;;;;;;;3.05;1.50;;;21.10;38.00;;;;;;5034779;28;20033;-49
2021/11/09 06:00:32;;;;;;;2.45;1.65;;;21.10;38.00;;;;;;5033720;28;20107;-49
2021/11/09 06:02:58;;;;;;;2.38;1.52;;;21.10;38.00;;;;;;5033143;28;20060;-49
2021/11/09 06:05:24;;;;;;;2.88;1.60;;;21.10;38.00;;;;;;5017436;28;20026;-49
2021/11/09 06:07:50;;;;;;;2.92;1.70;;;21.10;38.00;;;;;;5014772;28;20033;-48
2021/11/09 06:10:15;;;;;;;3.53;1.83;;;21.10;38.00;;;;;;5016562;28;20018;-48
2021/11/09 06:12:41;;;;;;;5.30;2.00;;;21.10;37.90;;;;;;5030869;28;20036;-51
2021/11/09 06:15:07;;;;;;;3.53;1.75;;;21.00;37.90;;;;;;5015266;28;20068;-54
2021/11/09 06:17:33;;;;;;;4.32;1.33;;;21.10;38.00;;;;;;5015139;28;20046;-50
2021/11/09 06:19:59;;;;;;;3.17;1.40;;;21.10;37.90;;;;;;5018389;28;20060;-47
2021/11/09 06:22:25;;;;;;;4.20;1.70;;;21.00;37.90;;;;;;5025249;28;20044;-50
2021/11/09 06:24:51;;;;;;;3.42;1.70;;;21.10;38.00;;;;;;5034079;28;20025;-50
2021/11/09 06:27:17;;;;;;;4.00;1.83;;;21.00;37.90;;;;;;5024311;28;20064;-49
2021/11/09 06:29:43;;;;;;;4.43;2.00;;;21.00;37.90;;;;;;5034976;28;20029;-47
2021/11/09 06:32:09;;;;;;;2.83;1.70;;;21.00;37.90;;;;;;5033057;28;20113;-50
2021/11/09 06:34:35;;;;;;;3.85;1.60;;;21.00;37.90;;;;;;5018160;28;20037;-51
2021/11/09 06:37:01;;;;;;;3.25;1.90;;;21.00;37.90;;;;;;5029613;28;20056;-49
2021/11/09 06:39:27;;;;;;;3.65;1.67;;;21.00;37.90;;;;;;5037406;28;20041;-48
2021/11/09 06:41:54;;;;;;;4.45;1.92;;;21.00;37.80;;;;;;5035816;28;20025;-48
2021/11/09 06:44:20;;;;;;;3.20;1.60;;;21.00;37.80;;;;;;5028250;28;20081;-48
2021/11/09 06:46:45;;;;;;;3.10;1.55;;;21.00;37.80;;;;;;5037673;28;20033;-53
2021/11/09 06:49:11;;;;;;;5.95;1.90;;;21.00;37.80;;;;;;5028521;28;20037;-50
2021/11/09 06:51:37;;;;;;;3.17;1.80;;;21.00;37.90;;;;;;5032287;28;20091;-47
2021/11/09 06:54:03;;;;;;;3.10;1.70;;;21.00;37.90;;;;;;5030682;28;20492;-49
2021/11/09 06:56:28;;;;;;;3.28;1.70;;;21.00;37.90;;;;;;5017746;28;20085;-49
2021/11/09 06:58:54;;;;;;;2.67;1.75;;;21.00;37.90;;;;;;5028207;28;20036;-49
2021/11/09 07:01:21;;;;;;;4.43;1.98;;;21.00;37.90;;;;;;5036309;28;20037;-49
2021/11/09 07:03:47;;;;;;;3.50;1.98;;;21.00;37.90;;;;;;5035972;28;20030;-47
2021/11/09 07:06:13;;;;;;;4.30;2.17;;;21.00;37.90;;;;;;5036518;28;20160;-50
2021/11/09 07:08:39;;;;;;;3.67;1.95;;;21.00;37.90;;;;;;5036486;28;20103;-50
2021/11/09 07:11:05;;;;;;;3.78;1.92;;;21.00;37.90;;;;;;5032433;28;20041;-51
2021/11/09 07:13:32;;;;;;;3.22;1.92;;;21.00;37.90;;;;;;5024215;28;20030;-48
2021/11/09 07:15:58;;;;;;;4.30;2.00;;;21.00;37.90;;;;;;5016785;28;20544;-49
2021/11/09 07:18:24;;;;;;;4.22;2.30;;;21.00;37.80;;;;;;5017008;28;20037;-48
2021/11/09 07:20:50;;;;;;;3.15;1.92;;;21.00;37.80;;;;;;5017415;28;20453;-49
2021/11/09 07:23:16;;;;;;;3.92;2.15;;;21.00;37.80;;;;;;5031513;28;20079;-49
2021/11/09 07:25:42;;;;;;;3.38;1.83;;;21.00;37.80;;;;;;5024497;28;20040;-48
2021/11/09 07:28:08;;;;;;;4.78;1.85;;;21.00;37.80;;;;;;5024120;28;20117;-48
2021/11/09 07:30:44;;;;;;;3.33;1.80;;;21.00;37.90;;;;;;5019560;28;20475;-50
2021/11/09 07:33:13;;;;;;;4.47;2.15;;;21.00;37.90;;;;;;5015949;28;20084;-50
2021/11/09 07:35:39;;;;;;;4.97;2.08;;;21.00;37.80;;;;;;5018595;28;20033;-54
2021/11/09 07:38:05;;;;;;;3.55;1.77;;;20.90;37.80;;;;;;5030158;28;20467;-49
2021/11/09 07:40:31;;;;;;;3.65;1.77;;;21.00;37.80;;;;;;5018667;28;20041;-47
2021/11/09 07:42:57;;;;;;;4.22;1.90;;;21.00;37.80;;;;;;5019313;28;20117;-48
2021/11/09 07:45:23;;;;;;;4.40;2.08;;;21.00;37.80;;;;;;5027858;28;20026;-49
2021/11/09 07:47:50;;;;;;;7.00;2.45;;;20.90;37.80;;;;;;5037194;28;20124;-47
2021/11/09 07:50:17;;;;;;;4.28;2.00;;;20.90;37.80;;;;;;5024892;28;20375;-54
2021/11/09 07:52:45;;;;;;;4.35;2.03;;;20.90;37.80;;;;;;5018686;28;20095;-47
2021/11/09 07:55:16;;;;;;;4.72;2.35;;;20.90;37.80;;;;;;5027389;28;20090;-47
2021/11/09 07:57:45;;;;;;;5.95;2.30;;;21.00;37.90;;;;;;5029620;28;20041;-46
2021/11/09 08:00:25;;;;;;;3.92;2.20;;;20.90;37.90;;;;;;5016034;28;20348;-49
2021/11/09 08:03:02;;;;;;;4.72;2.28;;;20.90;37.90;;;;;;5016579;28;20117;-49
2021/11/09 08:06:00;;;;;;;5.03;2.00;;;20.90;38.10;;;;;;5025873;28;20091;-50
2021/11/09 08:08:18;;;;;;;4.13;2.10;;;21.00;38.10;;;;;;5023217;28;20052;-51
2021/11/09 08:10:44;;;;;;;3.97;2.22;;;20.90;38.10;;;;;;5024386;28;20077;-46
2021/11/09 08:13:10;;;;;;;3.90;2.05;;;20.90;38.10;;;;;;5019545;28;20021;-50
2021/11/09 08:15:36;;;;;;;5.05;2.38;;;20.90;38.20;;;;;;5016063;28;20104;-55
2021/11/09 08:18:03;;;;;;;3.70;2.20;;;20.90;38.20;;;;;;5020308;28;20045;-48
2021/11/09 08:20:29;;;;;;;4.68;2.72;;;20.90;38.30;;;;;;5028846;28;20068;-52
2021/11/09 08:22:55;;;;;;;6.25;2.70;;;20.90;38.30;;;;;;5024633;28;20079;-48
2021/11/09 08:25:21;;;;;;;6.13;2.63;;;20.90;38.30;;;;;;5036279;28;20395;-46
2021/11/09 08:27:47;;;;;;;4.28;2.13;;;20.90;38.20;;;;;;5026054;28;20500;-50
2021/11/09 08:30:14;;;;;;;4.78;2.47;;;21.00;38.30;;;;;;5028054;28;20025;-55
2021/11/09 08:32:42;;;;;;;5.43;2.60;;;21.10;38.30;;;;;;5034030;28;20029;-48
2021/11/09 08:35:10;;;;;;;3.70;2.13;;;21.10;38.20;;;;;;5033636;28;20037;-50
2021/11/09 08:37:37;;;;;;;4.78;2.70;;;21.20;38.10;;;;;;5028503;28;20377;-48
2021/11/09 08:40:09;;;;;;;5.13;2.35;;;21.20;38.10;;;;;;5015995;28;20058;-53
2021/11/09 08:42:39;;;;;;;5.25;2.65;;;21.30;38.00;;;;;;5026994;28;20109;-46
2021/11/09 08:47:37;;;;;;;4.55;2.30;;;21.50;38.00;;;;;;5019117;28;20072;-46
2021/11/09 08:50:04;;;;;;;4.15;2.40;;;21.60;37.90;;;;;;5017359;28;20057;-48
2021/11/09 08:52:32;;;;;;;4.30;2.05;;;21.60;37.80;;;;;;5023080;28;20021;-49
2021/11/09 08:55:27;;;;;;;4.88;2.15;;;21.70;37.80;;;;;;5021825;28;20499;-47
2021/11/09 09:06:06;;;;;;;5.82;2.50;;;22.00;37.60;;;;;;5018934;28;20030;-55
2021/11/09 09:08:38;;;;;;;3.67;2.00;;;22.10;37.50;;;;;;5039210;28;20025;-46
2021/11/09 09:11:04;;;;;;;4.05;2.28;;;22.10;37.50;;;;;;5034932;28;20048;-49
2021/11/09 09:13:30;;;;;;;4.05;2.22;;;22.20;37.50;;;;;;5043488;28;20057;-47
2021/11/09 09:15:56;;;;;;;4.45;2.20;;;22.20;37.50;;;;;;5039161;28;20068;-48
2021/11/09 09:18:22;;;;;;;4.88;2.40;;;22.30;37.40;;;;;;5028983;28;20026;-46
2021/11/09 09:20:55;;;;;;;5.13;2.28;;;22.30;37.30;;;;;;5054650;28;20094;-47
2021/11/09 09:23:25;;;;;;;5.67;2.30;;;22.40;37.40;;;;;;5044475;28;20479;-46
2021/11/09 09:26:03;;;;;;;4.93;2.53;;;22.40;37.30;;;;;;5041137;28;20483;-47
2021/11/09 09:53:53;;;;;;;7.57;2.65;;;22.50;37.90;;;;;;5034260;28;20475;-47
2021/11/09 09:56:24;;;;;;;6.32;2.88;;;22.60;38.00;;;;;;5021419;28;20037;-56
2021/11/09 09:58:51;;;;;;;4.25;2.40;;;22.60;38.00;;;;;;5017015;28;20361;-50
2021/11/09 10:01:18;;;;;;;4.57;2.10;;;22.60;38.00;;;;;;5018764;28;20036;-51
2021/11/09 10:03:44;;;;;;;5.28;2.20;;;22.60;38.00;;;;;;5029318;28;20128;-49
2021/11/09 10:06:10;;;;;;;3.75;2.35;;;22.70;38.10;;;;;;5025534;28;20100;-50
2021/11/09 10:08:48;;;;;;;5.63;2.08;;;22.70;38.10;;;;;;5025356;28;20045;-51
2021/11/09 10:11:34;;;;;;;6.10;2.30;;;22.70;38.10;;;;;;5025113;28;20025;-47
2021/11/09 10:14:02;;;;;;;4.85;2.15;;;22.70;38.00;;;;;;5020561;28;20036;-45
2021/11/09 10:16:29;;;;;;;4.97;2.35;;;22.70;38.00;;;;;;5037084;28;20037;-49
2021/11/09 10:18:54;;;;;;;4.50;2.20;;;22.70;38.00;;;;;;5035902;28;20044;-50
2021/11/09 10:21:20;;;;;;;4.85;2.13;;;22.60;37.90;;;;;;5020523;28;20037;-47
2021/11/09 10:23:46;;;;;;;5.72;2.45;;;22.60;37.90;;;;;;5024363;28;20084;-46
2021/11/09 10:26:17;;;;;;;4.00;2.20;;;22.60;37.90;;;;;;5036013;28;20037;-50
2021/11/09 10:28:45;;;;;;;3.92;2.10;;;22.50;37.80;;;;;;5031284;28;20022;-46
2021/11/09 10:31:15;;;;;;;6.32;2.92;;;22.50;37.90;;;;;;5018277;28;20045;-45
2021/11/09 10:33:43;;;;;;;4.43;2.30;;;22.50;37.90;;;;;;5018803;28;20034;-45
2021/11/09 10:36:20;;;;;;;5.10;2.20;;;22.40;37.90;;;;;;5017963;28;20222;-51
2021/11/09 10:38:47;;;;;;;5.22;2.10;;;22.40;37.80;;;;;;5032819;28;20391;-50
2021/11/09 10:41:14;;;;;;;5.35;2.10;;;22.30;37.90;;;;;;5031893;28;20034;-48
2021/11/09 10:43:40;;;;;;;3.95;2.00;;;22.30;37.90;;;;;;5031607;28;20045;-47
2021/11/09 10:46:06;;;;;;;4.07;2.03;;;22.30;37.90;;;;;;5018244;28;20233;-47
2021/11/09 10:48:33;;;;;;;4.18;2.00;;;22.20;37.90;;;;;;5017775;28;20076;-49
2021/11/09 10:51:01;;;;;;;4.00;2.00;;;22.20;37.90;;;;;;5030293;28;20033;-46
2021/11/09 10:53:34;;;;;;;3.95;2.00;;;22.20;37.90;;;;;;5026384;28;20475;-49
2021/11/09 11:04:38;;;;;;;7.32;2.75;;;22.10;37.90;;;;;;5031616;28;20068;-47
2021/11/09 11:07:07;;;;;;;5.00;2.20;;;22.10;37.90;;;;;;5017567;28;20073;-46
2021/11/09 11:09:41;;;;;;;6.40;2.10;;;22.10;38.00;;;;;;5016261;28;20045;-48
2021/11/09 11:12:13;;;;;;;4.07;2.13;;;22.10;38.00;;;;;;5017395;28;20441;-47
2021/11/09 11:14:41;;;;;;;4.95;2.10;;;22.00;37.90;;;;;;5017040;28;20473;-50
2021/11/09 11:17:10;;;;;;;6.07;1.92;;;22.00;38.00;;;;;;5022960;28;20045;-49
2021/11/09 11:19:55;;;;;;;4.43;1.95;;;22.00;38.00;;;;;;5019926;28;20022;-46
2021/11/09 11:22:24;;;;;;;4.57;1.83;;;22.00;37.90;;;;;;5019257;28;20068;-48
2021/11/09 11:24:55;;;;;;;5.03;2.10;;;22.00;38.00;;;;;;5017341;28;20034;-48
2021/11/09 11:27:41;;;;;;;5.00;2.08;;;21.90;38.00;;;;;;5023938;28;20057;-47
2021/11/09 11:30:07;;;;;;;4.53;1.75;;;21.90;38.30;;;;;;5027398;28;20034;-48
2021/11/09 11:32:33;;;;;;;4.10;1.70;;;22.00;38.50;;;;;;5020443;28;20049;-47
2021/11/09 11:34:59;;;;;;;4.80;2.25;;;22.00;38.50;;;;;;5024181;28;20026;-50
2021/11/09 11:37:25;;;;;;;4.22;1.90;;;22.00;38.50;;;;;;5022782;28;20456;-48
2021/11/09 11:39:56;;;;;;;4.22;1.63;;;22.00;38.50;;;;;;5033761;28;20034;-50
2021/11/09 11:42:22;;;;;;;2.92;1.38;;;22.00;38.60;;;;;;5031682;28;20368;-50
2021/11/09 11:44:59;;;;;;;3.95;1.75;;;21.90;38.50;;;;;;5027889;28;20029;-46
2021/11/09 11:47:25;;;;;;;3.28;1.60;;;21.90;38.50;;;;;;5024208;28;20048;-47
2021/11/09 11:50:00;;;;;;;3.63;1.92;;;21.90;38.50;;;;;;5026288;28;20036;-46
2021/11/09 11:52:32;;;;;;;5.10;2.42;;;21.90;38.40;;;;;;5026758;28;20038;-49
2021/11/09 11:55:07;;;;;;;4.38;1.85;;;21.90;38.50;;;;;;5017280;28;20056;-50
2021/11/09 11:57:41;;;;;;;4.40;1.77;;;21.90;38.50;;;;;;5016515;28;20045;-50
2021/11/09 12:00:37;;;;;;;2.05;1.20;;;21.90;38.50;;;;;;5021818;28;20029;-48
2021/11/09 12:03:24;;;;;;;4.45;1.83;;;21.90;38.80;;;;;;5018764;28;20147;-49
2021/11/09 12:05:53;;;;;;;3.63;1.73;;;21.90;39.10;;;;;;5024476;28;20033;-52
2021/11/09 12:08:38;;;;;;;4.30;1.70;;;21.90;39.30;;;;;;5025622;28;20121;-52
2021/11/09 12:11:09;;;;;;;4.75;1.73;;;22.10;39.60;;;;;;5030683;28;20030;-54
2021/11/09 12:13:59;;;;;;;4.50;1.83;;;22.10;39.70;;;;;;5027387;28;20092;-53
2021/11/09 12:16:58;;;;;;;4.53;1.83;;;22.10;39.90;;;;;;5033354;28;20037;-50
2021/11/09 12:19:37;;;;;;;4.95;2.22;;;22.20;39.90;;;;;;5021100;28;20069;-53
2021/11/09 12:22:05;;;;;;;4.50;1.77;;;22.20;39.90;;;;;;5020479;28;20041;-55
2021/11/09 12:24:45;;;;;;;3.55;1.52;;;22.30;40.00;;;;;;5039696;28;20116;-53
2021/11/09 12:27:11;;;;;;;4.90;1.63;;;22.30;40.10;;;;;;5029967;28;20038;-57
2021/11/09 12:29:41;;;;;;;3.97;1.70;;;22.30;40.10;;;;;;5020969;28;20037;-51
2021/11/09 12:32:29;;;;;;;4.22;1.80;;;22.40;40.10;;;;;;5023665;28;20036;-55
2021/11/09 12:35:00;;;;;;;6.03;2.17;;;22.40;40.00;;;;;;5026426;28;20088;-53
2021/11/09 12:37:26;;;;;;;5.47;2.03;;;22.40;40.00;;;;;;5017959;28;20120;-53
2021/11/09 12:40:27;;;;;;;5.13;1.88;;;22.50;40.00;;;;;;5024466;28;20125;-50
2021/11/09 12:43:09;;;;;;;4.40;1.83;;;22.50;39.90;;;;;;5022327;28;20100;-53
2021/11/09 12:45:37;;;;;;;4.10;1.50;;;22.60;40.00;;;;;;5032667;28;20021;-47
2021/11/09 12:48:05;;;;;;;3.97;1.77;;;22.60;39.90;;;;;;5029313;28;20388;-46
2021/11/09 12:50:33;;;;;;;5.85;2.15;;;22.60;39.70;;;;;;5031887;28;20348;-51
2021/11/09 12:53:14;;;;;;;5.43;1.98;;;22.60;39.70;;;;;;5032481;28;20033;-49
2021/11/09 12:55:41;;;;;;;5.55;2.20;;;22.70;39.50;;;;;;5021369;28;20073;-53
2021/11/09 12:58:25;;;;;;;4.90;1.70;;;22.70;39.50;;;;;;5027177;28;20087;-51
2021/11/09 13:04:01;;;;;;;10.00;3.53;;;22.70;39.30;;;;;;5022898;28;20061;-59
2021/11/09 13:06:39;;;;;;;5.03;1.77;;;22.70;39.30;;;;;;5022582;28;20026;-58
2021/11/09 13:12:06;;;;;;;4.57;1.83;;;22.70;39.20;;;;;;5014373;28;20073;-51
2021/11/09 13:14:39;;;;;;;4.65;1.80;;;22.80;39.20;;;;;;5024933;28;20045;-57
2021/11/09 13:17:14;;;;;;;3.63;1.83;;;22.80;39.10;;;;;;5020326;28;20112;-53
2021/11/09 13:19:42;;;;;;;5.05;2.38;;;22.80;39.10;;;;;;5017720;28;20030;-50
2021/11/09 13:22:15;;;;;;;5.68;1.92;;;22.80;39.10;;;;;;5019784;28;20036;-46
2021/11/09 13:24:54;;;;;;;4.35;1.85;;;22.80;39.10;;;;;;5027281;28;20456;-54
2021/11/09 13:27:20;;;;;;;4.20;1.92;;;22.80;39.20;;;;;;5017662;28;20507;-53
2021/11/09 13:29:49;;;;;;;4.70;1.95;;;22.90;39.30;;;;;;5015763;28;20033;-51
2021/11/09 13:32:15;;;;;;;8.50;2.22;;;22.90;39.30;;;;;;5018430;28;20351;-62
2021/11/09 13:34:41;;;;;;;8.50;1.90;;;22.90;39.30;;;;;;5022091;28;20026;-61
2021/11/09 13:37:09;;;;;;;6.03;2.90;;;22.90;39.30;;;;;;5018106;28;20050;-53
2021/11/09 13:39:35;;;;;;;5.15;1.67;;;22.90;39.30;;;;;;5016590;28;20341;-53
2021/11/09 13:42:00;;;;;;;4.47;2.05;;;23.00;39.30;;;;;;5024073;28;20032;-51
2021/11/09 13:44:32;;;;;;;5.93;2.17;;;23.00;39.30;;;;;;5018152;28;20030;-45
2021/11/09 13:46:58;;;;;;;4.00;1.90;;;23.00;39.20;;;;;;5024499;28;20030;-49
2021/11/09 13:49:25;;;;;;;7.90;2.28;;;23.00;39.20;;;;;;5017883;28;20030;-51
2021/11/09 13:51:58;;;;;;;5.22;1.77;;;23.00;39.10;;;;;;5018063;28;20388;-51
2021/11/09 13:54:44;;;;;;;4.70;2.03;;;23.00;39.10;;;;;;5021943;28;20076;-51
2021/11/09 13:57:10;;;;;;;6.47;1.75;;;23.00;39.10;;;;;;5023330;28;20045;-50
2021/11/09 13:59:37;;;;;;;6.57;1.83;;;23.00;39.10;;;;;;5023295;28;20030;-47
2021/11/09 14:02:20;;;;;;;3.90;1.85;;;23.00;39.00;;;;;;5016409;28;20041;-50
2021/11/09 14:05:31;;;;;;;4.38;1.90;;;23.00;39.00;;;;;;5027733;28;20030;-47
2021/11/09 14:18:19;;;;;;;3.83;1.83;;;22.90;38.80;;;;;;5017450;28;20452;-56
2021/11/09 14:21:03;;;;;;;5.22;1.75;;;22.90;38.80;;;;;;5015282;28;20038;-46
2021/11/09 14:23:34;;;;;;;5.93;1.92;;;22.90;38.80;;;;;;5021894;28;20356;-51
2021/11/09 14:26:23;;;;;;;3.47;1.70;;;22.80;38.90;;;;;;5016845;28;20034;-50
2021/11/09 14:28:55;;;;;;;4.55;1.98;;;22.90;39.00;;;;;;5023376;28;20356;-53
2021/11/09 14:31:30;;;;;;;3.90;1.50;;;22.80;39.00;;;;;;5013822;28;20049;-55
2021/11/09 14:34:18;;;;;;;4.63;1.80;;;22.90;38.90;;;;;;5024105;28;20022;-54
2021/11/09 14:36:47;;;;;;;4.10;1.60;;;22.80;38.70;;;;;;5029041;28;20404;-52
2021/11/09 14:39:24;;;;;;;4.18;1.60;;;22.80;38.70;;;;;;5021618;28;20121;-51
2021/11/09 14:45:00;;;;;;;5.38;1.98;;;22.80;38.30;;;;;;5028383;28;20038;-59
2021/11/09 14:47:26;;;;;;;7.60;1.88;;;22.80;38.20;;;;;;5018641;28;20076;-55
2021/11/09 14:50:44;;;;;;;3.28;1.60;;;22.80;38.30;;;;;;5017901;28;20116;-55
2021/11/09 14:52:51;;;;;;;3.85;1.95;;;22.70;38.20;;;;;;5015387;28;20057;-53
2021/11/09 14:55:31;;;;;;;3.83;1.50;;;22.70;38.20;;;;;;5018122;28;20049;-53
2021/11/09 14:57:58;;;;;;;3.95;1.73;;;22.70;38.20;;;;;;5017656;28;20124;-58
2021/11/09 15:00:25;;;;;;;3.10;1.30;;;22.60;38.10;;;;;;5017956;28;20053;-58
2021/11/09 15:03:04;;;;;;;3.58;1.83;;;22.60;38.10;;;;;;5026372;28;20104;-54
2021/11/09 15:05:33;;;;;;;4.28;1.90;;;22.60;38.00;;;;;;5034301;28;20079;-56
2021/11/09 15:08:07;;;;;;;2.80;1.60;;;22.60;38.10;;;;;;5036592;28;20125;-53
2021/11/09 15:31:55;;;;;;;3.30;1.67;;;22.50;38.00;;;;;;5018549;28;20034;-48
2021/11/09 15:39:28;;;;;;;3.70;1.45;;;22.50;38.20;;;;;;5030328;28;20046;-50
2021/11/09 15:41:55;;;;;;;3.22;1.77;;;22.50;38.30;;;;;;5029739;28;20495;-48
2021/11/09 15:44:22;;;;;;;4.43;1.45;;;22.50;38.30;;;;;;5018453;28;20026;-50
2021/11/09 15:46:54;;;;;;;3.47;1.50;;;22.60;38.40;;;;;;5021955;28;20482;-46
2021/11/09 15:49:21;;;;;;;3.67;1.63;;;22.60;38.30;;;;;;5024163;28;20037;-49
2021/11/09 15:51:47;;;;;;;4.00;1.23;;;22.70;38.20;;;;;;5020702;28;20024;-53
2021/11/09 15:54:13;;;;;;;3.03;1.42;;;22.70;38.10;;;;;;5014977;28;20033;-49
2021/11/09 15:56:40;;;;;;;3.85;1.45;;;22.80;38.10;;;;;;5019737;28;20528;-49
2021/11/09 15:59:08;;;;;;;2.60;1.30;;;22.80;37.90;;;;;;5024163;28;20056;-52
2021/11/09 16:01:34;;;;;;;3.28;1.40;;;22.80;37.80;;;;;;5023144;28;20820;-50
2021/11/09 16:04:01;;;;;;;2.63;1.40;;;22.80;37.70;;;;;;5022262;28;20045;-46
2021/11/09 16:06:28;;;;;;;3.30;1.63;;;22.90;37.70;;;;;;5025510;28;20030;-51
2021/11/09 16:08:55;;;;;;;2.60;1.33;;;22.90;37.60;;;;;;5022490;28;20033;-51